Impacts TAF Board INFO
FOR SITUATIONAL AWARENESS. NOT TO BE USED FOR FLIGHT PLANNING PURPOSES.
IDs:

KLGA - New York/La Guardia, NY, US

Issued at 1936 UTC 15 Aug 2018
Updated at 2045 UTC 15 Aug 2018
Potential Impact None Slight Moderate High
Time<<16/09Z 16/10Z 16/11Z 16/12Z 16/13Z 16/14Z 16/15Z 16/16Z 16/17Z 16/18Z 16/19Z 16/20Z 16/21Z>>
Type PRVL PRVL PRVL PRVL PRVL PRVL PRVL PRVL PRVL PRVL PRVL PRVL PRVL
VIS >6 >6 >6 >6 >6 >6 >6 >6 >6 >6 >6 >6 >6
CIG -- -- -- -- -- -- -- -- -- -- -- -- --
Cover FEW FEW FEW FEW FEW FEW FEW FEW FEW FEW FEW FEW FEW
FltCat VFR VFR VFR VFR VFR VFR VFR VFR VFR VFR VFR VFR VFR
WX -- -- -- -- -- -- -- -- -- -- -- -- --
WDir 270 270 270 270 270 270 270 230 230 230 230 230 230
WSpd 7 7 7 7 7 7 7 10 10 10 10 10 10
WGst -- -- -- -- -- -- -- -- -- -- -- -- --

Raw TAF
KLGA 151936Z 1520/1624 32010G18KT P6SM FEW050 SCT250
  FM152200 29010KT P6SM FEW050 SCT250
  FM160300 27007KT P6SM FEW050 FEW250
  FM161600 23010KT P6SM FEW050 FEW250


METAR Board
Radar Display
Forecast Discussion

FOR SITUATIONAL AWARENESS. NOT TO BE USED FOR FLIGHT PLANNING PURPOSES.